createdAt,value
2022-07-26T00:01:11.224Z,30.20
2022-07-26T00:03:49.690Z,29.00
2022-07-26T00:06:20.806Z,28.80
2022-07-26T00:08:59.023Z,29.30
2022-07-26T00:14:25.844Z,29.20
2022-07-26T00:17:12.832Z,29.10
2022-07-26T00:19:44.609Z,29.40
2022-07-26T00:22:27.101Z,30.20
2022-07-26T00:25:07.300Z,29.90
2022-07-26T00:27:41.108Z,29.80
2022-07-26T00:30:15.175Z,30.10
2022-07-26T00:32:52.658Z,30.60
2022-07-26T00:35:21.410Z,30.40
2022-07-26T00:37:57.960Z,31.30
2022-07-26T00:40:51.494Z,31.50
2022-07-26T00:43:31.306Z,31.20
2022-07-26T00:46:28.606Z,31.10
2022-07-26T00:49:12.805Z,30.70
2022-07-26T00:51:49.242Z,30.90
2022-07-26T00:54:32.830Z,31.50
2022-07-26T00:57:04.451Z,31.10
2022-07-26T00:59:43.139Z,30.60
2022-07-26T01:02:28.510Z,30.40
2022-07-26T01:05:23.716Z,31.40
2022-07-26T01:07:54.362Z,29.80
2022-07-26T01:10:35.028Z,31.20
2022-07-26T01:13:13.423Z,32.10
2022-07-26T01:15:44.317Z,32.60
2022-07-26T01:18:32.741Z,31.70
2022-07-26T01:21:13.739Z,31.30
2022-07-26T01:23:58.853Z,32.40
2022-07-26T01:26:35.367Z,30.90
2022-07-26T01:32:04.195Z,33.50
2022-07-26T01:34:53.006Z,35.10
2022-07-26T01:37:27.521Z,36.80
2022-07-26T01:40:14.853Z,36.60
2022-07-26T01:42:55.223Z,38.00
2022-07-26T01:45:38.102Z,39.10
2022-07-26T01:48:11.525Z,38.20
2022-07-26T01:50:46.253Z,39.10
2022-07-26T01:53:27.167Z,40.60
2022-07-26T01:56:01.635Z,39.50
2022-07-26T01:58:34.442Z,41.00
2022-07-26T02:01:12.600Z,40.90
2022-07-26T02:03:41.005Z,40.80
2022-07-26T02:06:09.958Z,40.70
2022-07-26T02:08:50.699Z,41.50
2022-07-26T02:11:21.742Z,41.30
2022-07-26T02:13:58.003Z,42.30
2022-07-26T02:16:35.506Z,41.10
2022-07-26T02:19:24.024Z,41.90
2022-07-26T02:22:00.538Z,41.70
2022-07-26T02:24:37.648Z,41.40
2022-07-26T02:27:17.612Z,41.60
2022-07-26T02:30:02.332Z,42.10
2022-07-26T02:32:39.287Z,42.30
2022-07-26T02:35:35.234Z,42.60
2022-07-26T02:38:28.743Z,42.60
2022-07-26T02:41:22.849Z,41.90
2022-07-26T02:44:13.256Z,41.70
2022-07-26T02:47:06.222Z,41.60
2022-07-26T02:50:06.346Z,41.70
2022-07-26T02:52:58.142Z,41.60
2022-07-26T02:55:45.091Z,42.20
2022-07-26T02:58:32.618Z,42.60
2022-07-26T03:01:25.753Z,42.40
2022-07-26T03:04:02.613Z,41.80
2022-07-26T03:06:59.684Z,41.90
2022-07-26T03:09:46.311Z,41.50
2022-07-26T03:12:25.919Z,41.40
2022-07-26T03:15:24.902Z,41.50
2022-07-26T03:18:15.403Z,41.80
2022-07-26T03:20:49.565Z,41.30
2022-07-26T03:23:35.010Z,41.30
2022-07-26T03:26:17.032Z,41.00
2022-07-26T03:28:58.919Z,41.00
2022-07-26T03:31:32.659Z,40.60
2022-07-26T03:34:29.959Z,40.20
2022-07-26T03:37:18.277Z,40.30
2022-07-26T03:40:15.674Z,40.20
2022-07-26T03:43:13.719Z,40.30
2022-07-26T03:45:58.322Z,40.20
2022-07-26T03:48:37.937Z,41.60
2022-07-26T03:51:18.258Z,41.80
2022-07-26T03:54:03.082Z,41.70
2022-07-26T03:56:49.841Z,41.40
2022-07-26T03:59:43.802Z,41.30
2022-07-26T04:02:26.573Z,41.40
2022-07-26T04:05:40.247Z,41.00
2022-07-26T04:08:49.918Z,41.00
2022-07-26T04:15:57.542Z,40.90
2022-07-26T04:23:16.149Z,42.00
2022-07-26T04:26:36.992Z,41.70
2022-07-26T04:30:35.085Z,41.90
2022-07-26T04:34:35.146Z,41.20
2022-07-26T04:45:51.279Z,40.70
2022-07-26T04:48:46.497Z,41.00
2022-07-26T04:54:40.347Z,41.50
2022-07-26T04:57:47.614Z,42.20
2022-07-26T05:01:10.321Z,42.40
2022-07-26T05:04:44.581Z,42.80
2022-07-26T05:07:37.992Z,42.90
2022-07-26T05:10:44.995Z,42.30
2022-07-26T05:17:21.415Z,43.30
2022-07-26T05:20:18.047Z,42.50
2022-07-26T05:23:22.318Z,42.70
2022-07-26T05:26:26.978Z,43.20
2022-07-26T05:29:37.233Z,43.60
2022-07-26T05:32:47.223Z,43.80
2022-07-26T05:35:53.915Z,43.50
2022-07-26T05:42:27.870Z,43.50
2022-07-26T05:45:54.197Z,43.70
2022-07-26T05:49:02.421Z,42.80
2022-07-26T05:54:58.126Z,42.20
2022-07-26T05:58:02.381Z,43.10
2022-07-26T06:08:51.724Z,42.30
2022-07-26T06:11:54.091Z,40.00
2022-07-26T06:22:56.475Z,40.30
2022-07-26T06:26:01.877Z,39.80
2022-07-26T06:28:50.478Z,40.20
2022-07-26T06:31:36.695Z,40.40
2022-07-26T06:34:51.114Z,39.80
2022-07-26T06:37:49.020Z,39.70
2022-07-26T06:40:51.547Z,40.30
2022-07-26T06:48:01.691Z,40.10
2022-07-26T06:51:19.348Z,40.20
2022-07-26T06:54:32.765Z,40.40
2022-07-26T06:57:22.663Z,40.20
2022-07-26T07:01:05.133Z,40.60
2022-07-26T07:07:42.206Z,39.10
2022-07-26T07:14:28.867Z,38.20
2022-07-26T07:17:56.379Z,37.00
2022-07-26T07:21:28.906Z,35.20
2022-07-26T07:26:01.161Z,35.00
2022-07-26T07:32:03.364Z,34.70
2022-07-26T07:35:57.161Z,34.50
2022-07-26T07:38:54.115Z,33.70
2022-07-26T07:42:06.493Z,34.60
2022-07-26T07:45:13.164Z,33.60
2022-07-26T07:48:18.173Z,33.30
2022-07-26T07:51:29.954Z,32.80
2022-07-26T07:55:28.789Z,32.40
2022-07-26T07:58:31.588Z,31.80
2022-07-26T08:04:55.403Z,33.00
2022-07-26T08:08:01.817Z,31.70
2022-07-26T08:10:51.673Z,32.00
2022-07-26T08:14:08.446Z,31.90
2022-07-26T08:17:41.956Z,31.50
2022-07-26T08:24:00.260Z,31.90
2022-07-26T08:26:43.899Z,31.40
2022-07-26T08:29:26.497Z,30.60
2022-07-26T08:32:12.517Z,30.00
2022-07-26T08:37:43.676Z,29.70
2022-07-26T08:40:40.447Z,30.50
2022-07-26T08:46:52.446Z,29.80
2022-07-26T08:49:42.082Z,28.70
2022-07-26T08:52:22.914Z,29.00
2022-07-26T08:55:12.907Z,28.60
2022-07-26T08:58:28.685Z,28.70
2022-07-26T09:01:24.290Z,28.00
2022-07-26T09:04:23.767Z,27.80
2022-07-26T09:07:24.124Z,27.80
2022-07-26T09:10:19.742Z,27.50
2022-07-26T09:13:07.611Z,27.10
2022-07-26T09:16:02.594Z,25.70
2022-07-26T09:18:42.776Z,26.10
2022-07-26T09:21:49.066Z,26.50
2022-07-26T09:25:09.214Z,26.10
2022-07-26T09:28:06.834Z,25.70
2022-07-26T09:31:10.674Z,25.80
2022-07-26T09:33:59.413Z,26.00
2022-07-26T09:37:03.324Z,25.20
2022-07-26T09:40:08.305Z,24.60
2022-07-26T09:43:05.223Z,25.20
2022-07-26T09:45:58.848Z,25.00
2022-07-26T09:49:14.119Z,25.60
2022-07-26T09:52:24.645Z,25.50
2022-07-26T09:55:20.861Z,25.00
2022-07-26T10:02:03.554Z,24.90
2022-07-26T10:04:50.988Z,24.00
2022-07-26T10:07:47.620Z,23.80
2022-07-26T10:13:34.830Z,24.20
2022-07-26T10:16:41.571Z,24.60
2022-07-26T10:19:47.855Z,23.80
2022-07-26T10:22:56.015Z,23.90
2022-07-26T10:26:07.960Z,24.00
2022-07-26T10:29:29.035Z,22.80
2022-07-26T10:35:53.857Z,23.20
2022-07-26T10:38:54.535Z,22.40
2022-07-26T10:42:03.304Z,24.00
2022-07-26T10:44:54.212Z,23.90
2022-07-26T10:47:42.605Z,23.80
2022-07-26T10:50:47.234Z,22.70
2022-07-26T10:53:41.639Z,23.00
2022-07-26T10:56:34.625Z,21.90
2022-07-26T10:59:55.434Z,22.80
2022-07-26T11:02:55.704Z,22.70
2022-07-26T11:09:55.927Z,23.80
2022-07-26T11:13:31.909Z,24.30
2022-07-26T11:17:10.339Z,22.50
2022-07-26T11:20:29.756Z,22.20
2022-07-26T11:26:55.715Z,21.70
2022-07-26T11:30:00.417Z,20.90
2022-07-26T11:33:00.167Z,21.90
2022-07-26T11:35:55.851Z,21.30
2022-07-26T11:39:08.858Z,22.20
2022-07-26T11:41:57.724Z,22.30
2022-07-26T11:44:45.246Z,22.50
2022-07-26T11:47:30.769Z,21.90
2022-07-26T11:50:22.660Z,20.70
2022-07-26T11:53:04.794Z,19.40
2022-07-26T11:55:49.331Z,19.10
2022-07-26T11:58:40.278Z,20.60
2022-07-26T12:01:38.407Z,20.70
2022-07-26T12:04:38.869Z,21.20
2022-07-26T12:07:18.983Z,21.10
2022-07-26T12:13:24.405Z,20.20
2022-07-26T12:16:16.648Z,18.10
2022-07-26T12:19:13.199Z,19.70
2022-07-26T12:25:05.544Z,18.20
2022-07-26T12:28:02.793Z,19.20
2022-07-26T12:30:53.169Z,19.40
2022-07-26T12:33:46.169Z,19.30
2022-07-26T12:39:25.154Z,19.00
2022-07-26T12:45:36.717Z,20.30
2022-07-26T12:48:41.421Z,19.70
2022-07-26T12:51:51.289Z,18.90
2022-07-26T12:57:33.000Z,18.60
2022-07-26T13:00:44.109Z,18.90
2022-07-26T13:03:40.257Z,19.10
2022-07-26T13:06:52.528Z,19.00
2022-07-26T13:10:31.695Z,19.50
2022-07-26T13:13:07.904Z,20.00
2022-07-26T13:15:49.285Z,18.60
2022-07-26T13:18:31.086Z,18.10
2022-07-26T13:21:25.350Z,19.60
2022-07-26T13:26:54.772Z,18.80
2022-07-26T13:29:45.647Z,19.60
2022-07-26T13:32:39.117Z,19.40
2022-07-26T13:35:50.245Z,18.80
2022-07-26T13:38:43.351Z,18.20
2022-07-26T13:41:31.742Z,18.50
2022-07-26T13:44:26.890Z,18.70
2022-07-26T13:46:59.819Z,18.40
2022-07-26T13:49:44.369Z,20.00
2022-07-26T13:52:36.762Z,18.50
2022-07-26T13:55:11.279Z,18.00
2022-07-26T13:58:18.183Z,18.30
2022-07-26T14:01:15.543Z,17.60
2022-07-26T14:04:06.080Z,17.90
2022-07-26T14:07:26.588Z,18.00
2022-07-26T14:10:28.744Z,17.30
2022-07-26T14:13:30.148Z,17.80
2022-07-26T14:16:38.918Z,16.90
2022-07-26T14:19:47.054Z,17.80
2022-07-26T14:22:51.462Z,17.80
2022-07-26T14:25:50.747Z,18.40
2022-07-26T14:28:28.599Z,18.50
2022-07-26T14:33:58.625Z,18.60
2022-07-26T14:39:47.047Z,18.60
2022-07-26T14:42:20.069Z,19.00
2022-07-26T14:45:05.295Z,19.40
2022-07-26T14:48:01.947Z,19.70
2022-07-26T14:50:59.826Z,18.30
2022-07-26T14:53:55.561Z,18.50
2022-07-26T14:56:39.453Z,18.50
2022-07-26T14:59:21.051Z,17.70
2022-07-26T15:02:20.748Z,18.20
2022-07-26T15:04:55.033Z,19.10
2022-07-26T15:07:51.588Z,18.90
2022-07-26T15:10:50.075Z,18.60
2022-07-26T15:13:26.729Z,18.50
2022-07-26T15:19:25.866Z,18.50
2022-07-26T15:22:15.291Z,17.80
2022-07-26T15:25:31.782Z,18.70
2022-07-26T15:28:27.195Z,17.70
2022-07-26T15:31:41.954Z,18.10
2022-07-26T15:34:33.707Z,17.50
2022-07-26T15:37:53.505Z,17.20
2022-07-26T15:41:44.254Z,17.80
2022-07-26T15:44:18.503Z,17.80
2022-07-26T15:50:41.289Z,17.30
2022-07-26T15:56:48.560Z,17.10
2022-07-26T16:06:26.923Z,17.60
2022-07-26T16:09:41.082Z,19.90
2022-07-26T16:12:41.437Z,18.10
2022-07-26T16:19:22.052Z,17.80
2022-07-26T16:25:30.840Z,18.20
2022-07-26T16:28:37.523Z,18.00
2022-07-26T16:38:20.852Z,16.50
2022-07-26T16:41:43.830Z,17.40
2022-07-26T16:44:38.161Z,16.90
2022-07-26T16:47:59.624Z,16.50
2022-07-26T16:51:10.287Z,17.90
2022-07-26T16:53:59.450Z,17.40
2022-07-26T17:00:44.896Z,17.70
2022-07-26T17:04:11.440Z,17.40
2022-07-26T17:07:32.679Z,16.90
2022-07-26T17:13:16.676Z,17.70
2022-07-26T17:16:00.512Z,18.10
2022-07-26T17:18:38.912Z,17.70
2022-07-26T17:21:18.379Z,18.50
2022-07-26T17:24:11.249Z,18.20
2022-07-26T17:27:01.650Z,17.60
2022-07-26T17:29:59.852Z,17.80
2022-07-26T18:18:17.418Z,19.20
2022-07-26T18:21:24.253Z,19.20
2022-07-26T18:24:28.673Z,19.20
2022-07-26T18:27:24.822Z,19.20
2022-07-26T18:30:13.312Z,19.30
2022-07-26T18:33:19.111Z,18.90
2022-07-26T18:36:18.014Z,19.50
2022-07-26T18:43:30.691Z,18.30
2022-07-26T18:51:45.505Z,18.60
2022-07-26T19:11:30.176Z,19.40
2022-07-26T19:21:22.471Z,19.90
2022-07-26T19:24:21.019Z,19.70
2022-07-26T19:27:16.509Z,20.70
2022-07-26T19:53:36.180Z,22.10
2022-07-26T19:56:48.602Z,24.00
2022-07-26T19:59:25.279Z,25.20
2022-07-26T20:02:23.194Z,27.20
2022-07-26T20:05:25.658Z,27.10
2022-07-26T20:08:20.541Z,27.40
2022-07-26T20:11:42.602Z,28.10
2022-07-26T20:14:17.094Z,28.40
2022-07-26T20:17:22.671Z,28.30
2022-07-26T20:20:05.013Z,28.90
2022-07-26T20:22:47.455Z,28.70
2022-07-26T20:25:30.694Z,28.90
2022-07-26T20:28:25.718Z,29.30
2022-07-26T20:31:03.341Z,29.20
2022-07-26T20:33:41.950Z,28.80
2022-07-26T20:36:36.847Z,29.60
2022-07-26T20:39:12.300Z,29.20
2022-07-26T20:41:48.137Z,29.60
2022-07-26T20:44:39.505Z,30.00
2022-07-26T20:47:25.526Z,29.50
2022-07-26T20:50:07.762Z,29.70
2022-07-26T20:52:38.287Z,30.00
2022-07-26T20:55:23.355Z,30.20
2022-07-26T20:58:02.298Z,30.50
2022-07-26T21:00:35.361Z,30.60
2022-07-26T21:03:10.984Z,30.50
2022-07-26T21:05:41.960Z,31.10
2022-07-26T21:08:18.867Z,30.40
2022-07-26T21:10:49.325Z,30.50
2022-07-26T21:13:23.975Z,31.40
2022-07-26T21:15:54.585Z,32.60
2022-07-26T21:18:31.334Z,32.50
2022-07-26T21:21:05.582Z,32.60
2022-07-26T21:23:38.682Z,33.30
2022-07-26T21:26:15.661Z,34.30
2022-07-26T21:28:55.605Z,34.40
2022-07-26T21:31:31.507Z,34.90
2022-07-26T21:34:08.016Z,35.40
2022-07-26T21:36:41.230Z,35.30
2022-07-26T21:39:15.263Z,35.70
2022-07-26T21:41:52.721Z,35.10
2022-07-26T21:44:28.076Z,35.00
2022-07-26T21:47:15.278Z,35.50
2022-07-26T21:49:48.544Z,35.40
2022-07-26T21:52:24.539Z,35.20
2022-07-26T21:55:00.129Z,35.60
2022-07-26T21:57:38.277Z,35.70
2022-07-26T22:00:21.501Z,35.80
2022-07-26T22:03:26.538Z,35.60
2022-07-26T22:06:06.475Z,35.60
2022-07-26T22:08:39.507Z,35.70
2022-07-26T22:11:13.630Z,35.80
2022-07-26T22:13:48.308Z,35.70
2022-07-26T22:16:22.478Z,35.60
2022-07-26T22:22:45.325Z,36.70
2022-07-26T22:25:43.002Z,37.40
2022-07-26T22:28:29.895Z,37.70
2022-07-26T22:31:09.972Z,36.80
2022-07-26T22:33:42.232Z,37.50
2022-07-26T22:36:24.313Z,37.30
2022-07-26T22:38:58.293Z,37.40
2022-07-26T22:41:57.518Z,37.30
2022-07-26T22:44:47.273Z,37.80
2022-07-26T22:47:30.022Z,36.80
2022-07-26T22:49:58.520Z,36.60
2022-07-26T22:52:46.801Z,37.40
2022-07-26T22:55:18.152Z,37.50
2022-07-26T22:57:53.271Z,37.40
2022-07-26T23:00:27.716Z,37.50
2022-07-26T23:03:03.206Z,37.70
2022-07-26T23:05:47.439Z,36.90
2022-07-26T23:08:44.346Z,34.50
2022-07-26T23:11:14.630Z,33.80
2022-07-26T23:13:58.839Z,32.30
2022-07-26T23:16:28.167Z,32.50
2022-07-26T23:19:09.961Z,31.90
2022-07-26T23:21:41.244Z,32.10
2022-07-26T23:24:14.124Z,31.50
2022-07-26T23:26:42.579Z,31.30
2022-07-26T23:29:14.477Z,31.20
2022-07-26T23:31:43.504Z,31.70
2022-07-26T23:34:31.077Z,32.00
2022-07-26T23:37:08.834Z,32.90
2022-07-26T23:39:42.609Z,32.90
2022-07-26T23:42:23.027Z,32.70
2022-07-26T23:45:25.247Z,33.40
2022-07-26T23:48:22.317Z,35.10
2022-07-26T23:50:54.043Z,35.80
2022-07-26T23:53:26.968Z,36.10
2022-07-26T23:55:57.096Z,36.40
2022-07-26T23:58:25.402Z,36.60
